createdAt,value
2018-04-12T00:02:26.919Z,7.90
2018-04-12T00:12:35.599Z,7.90
2018-04-12T00:22:45.002Z,7.70
2018-04-12T00:32:53.498Z,7.60
2018-04-12T00:37:57.343Z,7.50
2018-04-12T00:43:01.175Z,7.50
2018-04-12T00:48:04.270Z,7.50
2018-04-12T00:53:07.354Z,7.50
2018-04-12T00:58:11.207Z,7.40
2018-04-12T01:03:15.023Z,7.30
2018-04-12T01:08:18.868Z,7.30
2018-04-12T01:13:21.969Z,7.30
2018-04-12T01:18:25.830Z,7.20
2018-04-12T01:28:34.143Z,7.10
2018-04-12T01:33:37.222Z,7.10
2018-04-12T01:38:41.078Z,7.00
2018-04-12T01:43:44.374Z,7.00
2018-04-12T01:48:48.247Z,7.00
2018-04-12T01:53:51.339Z,6.90
2018-04-12T01:58:54.497Z,6.80
2018-04-12T02:03:59.074Z,6.80
2018-04-12T02:09:02.946Z,6.80
2018-04-12T02:14:06.450Z,6.70
2018-04-12T02:19:11.340Z,6.70
2018-04-12T02:24:15.547Z,6.70
2018-04-12T02:29:19.289Z,6.70
2018-04-12T02:34:23.522Z,6.80
2018-04-12T02:39:28.103Z,6.80
2018-04-12T02:49:36.694Z,7.00
2018-04-12T02:59:45.746Z,7.10
2018-04-12T03:04:49.434Z,7.20
2018-04-12T03:09:53.642Z,7.20
2018-04-12T03:14:57.503Z,7.20
2018-04-12T03:20:01.739Z,7.20
2018-04-12T03:25:04.816Z,7.10
2018-04-12T03:30:08.689Z,7.10
2018-04-12T03:40:16.607Z,7.20
2018-04-12T03:45:19.690Z,7.20
2018-04-12T03:50:22.825Z,7.20
2018-04-12T04:05:35.956Z,7.30
2018-04-12T04:10:40.206Z,7.20
2018-04-12T04:16:00.974Z,7.20
2018-04-12T04:21:10.113Z,7.30
2018-04-12T04:26:13.806Z,7.30
2018-04-12T04:31:17.878Z,7.40
2018-04-12T04:36:22.471Z,7.40
2018-04-12T04:41:25.947Z,7.40
2018-04-12T04:46:29.076Z,7.50
2018-04-12T04:51:32.552Z,7.60
2018-04-12T04:56:36.393Z,7.60
2018-04-12T05:01:40.662Z,7.60
2018-04-12T05:06:44.510Z,7.70
2018-04-12T05:16:52.020Z,7.80
2018-04-12T05:21:56.624Z,7.90
2018-04-12T05:26:59.716Z,8.00
2018-04-12T05:32:04.103Z,8.00
2018-04-12T05:37:07.943Z,8.00
2018-04-12T05:42:11.423Z,8.10
2018-04-12T05:47:16.021Z,8.20
2018-04-12T05:52:19.151Z,8.30
2018-04-12T05:57:22.207Z,8.30
2018-04-12T06:02:26.835Z,8.40
2018-04-12T06:07:30.302Z,8.50
2018-04-12T06:27:46.712Z,8.80
2018-04-12T06:32:50.889Z,8.80
2018-04-12T06:37:54.759Z,8.90
2018-04-12T06:42:57.830Z,9.00
2018-04-12T06:48:00.982Z,9.10
2018-04-12T06:53:04.439Z,9.10
2018-04-12T06:58:09.061Z,9.10
2018-04-12T07:03:13.656Z,9.20
2018-04-12T07:08:17.867Z,9.40
2018-04-12T07:13:21.719Z,9.40
2018-04-12T07:18:24.803Z,9.50
2018-04-12T07:23:27.890Z,9.60
2018-04-12T07:28:30.978Z,9.90
2018-04-12T07:33:34.834Z,10.30
2018-04-12T07:38:37.921Z,10.80
2018-04-12T07:43:41.815Z,11.00
2018-04-12T07:48:44.896Z,11.30
2018-04-12T07:53:48.746Z,11.30
2018-04-12T07:58:52.235Z,11.30
2018-04-12T08:03:56.348Z,11.50
2018-04-12T08:14:03.874Z,12.40
2018-04-12T08:19:07.366Z,14.20
2018-04-12T08:24:10.460Z,15.20
2018-04-12T08:29:14.327Z,15.40
2018-04-12T08:39:22.638Z,14.70
2018-04-12T08:49:30.939Z,15.00
2018-04-12T08:54:35.178Z,14.90
2018-04-12T08:59:38.283Z,15.50
2018-04-12T09:04:42.019Z,15.60
2018-04-12T09:09:45.102Z,15.60
2018-04-12T09:14:48.203Z,15.80
2018-04-12T09:19:51.290Z,16.30
2018-04-12T09:24:55.196Z,17.80
2018-04-12T09:29:58.627Z,18.90
2018-04-12T09:35:01.728Z,19.60
2018-04-12T09:40:05.578Z,19.80
2018-04-12T09:45:08.671Z,19.20
2018-04-12T09:55:16.974Z,18.90
2018-04-12T10:00:25.501Z,18.50
2018-04-12T10:05:30.375Z,18.40
2018-04-12T10:10:34.226Z,18.50
2018-04-12T10:15:38.480Z,18.00
2018-04-12T10:20:43.023Z,17.80
2018-04-12T10:25:46.516Z,18.00
2018-04-12T10:30:50.003Z,18.10
2018-04-12T10:35:53.874Z,18.30
2018-04-12T10:40:58.099Z,18.20
2018-04-12T10:46:01.178Z,18.30
2018-04-12T10:51:04.273Z,18.50
2018-04-12T10:56:08.118Z,18.70
2018-04-12T11:01:11.242Z,18.80
2018-04-12T11:06:14.329Z,18.90
2018-04-12T11:11:17.421Z,19.10
2018-04-12T11:16:20.503Z,19.10
2018-04-12T11:21:23.594Z,18.90
2018-04-12T11:26:27.835Z,18.70
2018-04-12T11:31:31.341Z,18.70
2018-04-12T11:41:39.610Z,18.70
2018-04-12T11:51:47.919Z,18.70
2018-04-12T11:56:51.402Z,18.70
2018-04-12T12:01:54.890Z,18.60
2018-04-12T12:06:59.179Z,18.70
2018-04-12T12:17:07.059Z,19.00
2018-04-12T12:22:10.935Z,18.90
2018-04-12T12:27:15.183Z,19.00
2018-04-12T12:32:19.043Z,18.90
2018-04-12T12:37:22.156Z,18.90
2018-04-12T12:47:29.706Z,19.10
2018-04-12T12:52:33.186Z,19.10
2018-04-12T12:57:37.042Z,19.00
2018-04-12T13:02:41.624Z,19.00
2018-04-12T13:07:45.099Z,19.00
2018-04-12T13:22:57.040Z,19.30
2018-04-12T13:28:00.123Z,19.50
2018-04-12T13:38:09.615Z,20.00
2018-04-12T13:48:18.286Z,20.40
2018-04-12T13:53:22.534Z,20.50
2018-04-12T13:58:26.399Z,20.40
2018-04-12T14:03:30.245Z,20.40
2018-04-12T14:08:33.331Z,20.50
2018-04-12T14:18:40.878Z,20.70
2018-04-12T14:28:48.399Z,20.70
2018-04-12T14:33:51.486Z,20.60
2018-04-12T14:43:59.419Z,20.50
2018-04-12T14:49:02.492Z,20.40
2018-04-12T14:54:06.365Z,20.30
2018-04-12T14:59:09.446Z,20.20
2018-04-12T15:04:12.536Z,20.20
2018-04-12T15:09:16.619Z,20.20
2018-04-12T15:14:20.106Z,20.30
2018-04-12T15:19:23.583Z,20.50
2018-04-12T15:24:26.653Z,20.70
2018-04-12T15:29:30.499Z,20.90
2018-04-12T15:34:33.583Z,20.90
2018-04-12T15:44:41.787Z,20.90
2018-04-12T15:49:44.861Z,20.70
2018-04-12T15:54:48.731Z,20.80
2018-04-12T15:59:51.806Z,20.80
2018-04-12T16:04:56.749Z,20.80
2018-04-12T16:10:00.235Z,20.70
2018-04-12T16:15:03.336Z,20.60
2018-04-12T16:20:06.409Z,20.40
2018-04-12T16:30:14.708Z,20.30
2018-04-12T16:35:17.783Z,20.10
2018-04-12T16:40:21.640Z,19.90
2018-04-12T16:45:24.748Z,19.90
2018-04-12T16:50:27.854Z,19.90
2018-04-12T16:55:32.086Z,19.90
2018-04-12T17:05:41.063Z,19.60
2018-04-12T17:10:44.824Z,19.50
2018-04-12T17:31:01.303Z,19.00
2018-04-12T17:36:05.623Z,18.80
2018-04-12T17:41:09.122Z,18.60
2018-04-12T17:46:12.220Z,18.40
2018-04-12T17:51:16.066Z,18.30
2018-04-12T17:56:20.662Z,18.10
2018-04-12T18:01:23.747Z,18.00
2018-04-12T18:11:32.256Z,17.70
2018-04-12T18:21:40.166Z,17.40
2018-04-12T18:26:43.572Z,17.20
2018-04-12T18:31:47.420Z,17.10
2018-04-12T18:36:50.508Z,17.00
2018-04-12T18:41:54.409Z,16.90
2018-04-12T18:46:57.512Z,16.80
2018-04-12T18:52:00.609Z,16.70
2018-04-12T18:57:03.715Z,16.50
2018-04-12T19:02:08.329Z,16.40
2018-04-12T19:07:11.406Z,16.30
2018-04-12T19:12:15.274Z,16.10
2018-04-12T19:22:24.530Z,15.70
2018-04-12T19:27:28.533Z,15.50
2018-04-12T19:32:32.527Z,15.40
2018-04-12T19:37:36.419Z,15.20
2018-04-12T19:42:41.027Z,15.00
2018-04-12T19:47:44.211Z,14.90
2018-04-12T19:52:48.503Z,14.70
2018-04-12T19:57:52.363Z,14.50
2018-04-12T20:02:56.631Z,14.30
2018-04-12T20:08:00.648Z,14.30
2018-04-12T20:13:04.145Z,14.20
2018-04-12T20:18:13.674Z,14.00
2018-04-12T20:23:16.759Z,14.00
2018-04-12T20:28:20.633Z,13.90
2018-04-12T20:33:24.873Z,13.90
2018-04-12T20:38:28.763Z,13.80
2018-04-12T20:43:32.998Z,13.70
2018-04-12T20:48:36.085Z,13.50
2018-04-12T20:58:44.411Z,13.10
2018-04-12T21:03:49.002Z,13.00
2018-04-12T21:08:53.471Z,12.90
2018-04-12T21:19:02.158Z,12.60
2018-04-12T21:29:10.829Z,12.50
2018-04-12T21:34:15.063Z,12.30
2018-04-12T21:39:19.490Z,12.10
2018-04-12T21:44:23.697Z,12.10
2018-04-12T21:49:26.797Z,11.90
2018-04-12T21:54:29.883Z,11.80
2018-04-12T21:59:33.738Z,11.80
2018-04-12T22:09:43.231Z,11.70
2018-04-12T22:14:46.310Z,11.60
2018-04-12T22:19:50.170Z,11.50
2018-04-12T22:24:53.267Z,11.50
2018-04-12T22:29:57.862Z,11.40
2018-04-12T22:35:02.099Z,11.30
2018-04-12T22:40:05.578Z,11.30
2018-04-12T22:45:09.092Z,11.10
2018-04-12T22:50:12.195Z,11.00
2018-04-12T23:00:19.760Z,10.80
2018-04-12T23:05:23.974Z,10.70
2018-04-12T23:10:27.109Z,10.60
2018-04-12T23:15:30.986Z,10.50
2018-04-12T23:20:34.087Z,10.40
2018-04-12T23:25:37.562Z,10.40
2018-04-12T23:30:41.410Z,10.30
2018-04-12T23:35:44.907Z,10.20
2018-04-12T23:40:48.390Z,10.20
2018-04-12T23:45:51.879Z,10.00
2018-04-12T23:50:56.106Z,9.90
2018-04-12T23:55:59.949Z,9.90
